sensor_id;sensor_type;location;lat;lon;timestamp;P1;durP1;ratioP1;P2;durP2;ratioP2
8104;SDS011;4095;48.942;9.104;2024-03-25T00:01:03;7.03;;;2.43;;
8104;SDS011;4095;48.942;9.104;2024-03-25T00:03:29;5.47;;;2.43;;
8104;SDS011;4095;48.942;9.104;2024-03-25T00:05:54;5.43;;;2.63;;
8104;SDS011;4095;48.942;9.104;2024-03-25T00:08:20;5.90;;;2.83;;
8104;SDS011;4095;48.942;9.104;2024-03-25T00:10:45;5.13;;;2.70;;
8104;SDS011;4095;48.942;9.104;2024-03-25T00:13:11;4.20;;;2.67;;
8104;SDS011;4095;48.942;9.104;2024-03-25T00:15:36;5.00;;;2.67;;
8104;SDS011;4095;48.942;9.104;2024-03-25T00:18:03;3.03;;;2.13;;
8104;SDS011;4095;48.942;9.104;2024-03-25T00:20:29;4.87;;;2.57;;
8104;SDS011;4095;48.942;9.104;2024-03-25T00:22:54;5.37;;;2.60;;
8104;SDS011;4095;48.942;9.104;2024-03-25T00:25:20;4.33;;;2.73;;
8104;SDS011;4095;48.942;9.104;2024-03-25T00:27:45;4.90;;;2.50;;
8104;SDS011;4095;48.942;9.104;2024-03-25T00:30:11;4.90;;;2.80;;
8104;SDS011;4095;48.942;9.104;2024-03-25T00:32:37;5.63;;;2.90;;
8104;SDS011;4095;48.942;9.104;2024-03-25T00:35:03;5.67;;;2.80;;
8104;SDS011;4095;48.942;9.104;2024-03-25T00:37:29;5.00;;;2.90;;
8104;SDS011;4095;48.942;9.104;2024-03-25T00:39:54;9.03;;;3.13;;
8104;SDS011;4095;48.942;9.104;2024-03-25T00:42:20;4.67;;;2.90;;
8104;SDS011;4095;48.942;9.104;2024-03-25T00:44:45;6.10;;;3.10;;
8104;SDS011;4095;48.942;9.104;2024-03-25T00:47:11;8.13;;;3.30;;
8104;SDS011;4095;48.942;9.104;2024-03-25T00:49:37;4.87;;;3.13;;
8104;SDS011;4095;48.942;9.104;2024-03-25T00:52:03;4.87;;;2.97;;
8104;SDS011;4095;48.942;9.104;2024-03-25T00:54:30;6.07;;;2.90;;
8104;SDS011;4095;48.942;9.104;2024-03-25T00:56:56;6.97;;;3.47;;
8104;SDS011;4095;48.942;9.104;2024-03-25T00:59:21;6.30;;;3.87;;
8104;SDS011;4095;48.942;9.104;2024-03-25T01:01:47;6.60;;;2.93;;
8104;SDS011;4095;48.942;9.104;2024-03-25T01:04:12;5.60;;;2.60;;
8104;SDS011;4095;48.942;9.104;2024-03-25T01:06:38;8.33;;;3.43;;
8104;SDS011;4095;48.942;9.104;2024-03-25T01:09:03;6.43;;;3.03;;
8104;SDS011;4095;48.942;9.104;2024-03-25T01:11:32;4.10;;;3.03;;
8104;SDS011;4095;48.942;9.104;2024-03-25T01:13:58;6.27;;;3.10;;
8104;SDS011;4095;48.942;9.104;2024-03-25T01:16:24;4.13;;;2.70;;
8104;SDS011;4095;48.942;9.104;2024-03-25T01:18:49;5.30;;;3.00;;
8104;SDS011;4095;48.942;9.104;2024-03-25T01:21:15;5.43;;;2.80;;
8104;SDS011;4095;48.942;9.104;2024-03-25T01:23:40;5.53;;;3.13;;
8104;SDS011;4095;48.942;9.104;2024-03-25T01:26:06;4.87;;;2.63;;
8104;SDS011;4095;48.942;9.104;2024-03-25T01:28:32;5.20;;;3.03;;
8104;SDS011;4095;48.942;9.104;2024-03-25T01:30:57;6.00;;;3.10;;
8104;SDS011;4095;48.942;9.104;2024-03-25T01:33:23;5.97;;;3.00;;
8104;SDS011;4095;48.942;9.104;2024-03-25T01:35:48;5.73;;;2.93;;
8104;SDS011;4095;48.942;9.104;2024-03-25T01:38:14;4.83;;;3.20;;
8104;SDS011;4095;48.942;9.104;2024-03-25T01:40:39;4.80;;;3.07;;
8104;SDS011;4095;48.942;9.104;2024-03-25T01:43:05;6.10;;;3.20;;
8104;SDS011;4095;48.942;9.104;2024-03-25T01:45:34;5.47;;;2.90;;
8104;SDS011;4095;48.942;9.104;2024-03-25T01:48:09;6.87;;;3.27;;
8104;SDS011;4095;48.942;9.104;2024-03-25T01:50:38;8.60;;;3.50;;
8104;SDS011;4095;48.942;9.104;2024-03-25T01:53:06;6.27;;;3.00;;
8104;SDS011;4095;48.942;9.104;2024-03-25T01:55:33;6.03;;;3.10;;
8104;SDS011;4095;48.942;9.104;2024-03-25T01:58:01;6.37;;;3.20;;
8104;SDS011;4095;48.942;9.104;2024-03-25T02:00:27;7.20;;;3.20;;
8104;SDS011;4095;48.942;9.104;2024-03-25T02:02:53;6.13;;;3.20;;
8104;SDS011;4095;48.942;9.104;2024-03-25T02:05:20;6.97;;;3.40;;
8104;SDS011;4095;48.942;9.104;2024-03-25T02:07:45;7.07;;;3.13;;
8104;SDS011;4095;48.942;9.104;2024-03-25T02:10:12;7.10;;;3.33;;
8104;SDS011;4095;48.942;9.104;2024-03-25T02:12:40;8.77;;;3.30;;
8104;SDS011;4095;48.942;9.104;2024-03-25T02:15:07;4.40;;;3.20;;
8104;SDS011;4095;48.942;9.104;2024-03-25T02:17:33;8.80;;;3.73;;
8104;SDS011;4095;48.942;9.104;2024-03-25T02:20:00;7.23;;;3.37;;
8104;SDS011;4095;48.942;9.104;2024-03-25T02:22:28;6.10;;;2.97;;
8104;SDS011;4095;48.942;9.104;2024-03-25T02:24:54;5.53;;;3.00;;
8104;SDS011;4095;48.942;9.104;2024-03-25T02:27:22;6.80;;;3.20;;
8104;SDS011;4095;48.942;9.104;2024-03-25T02:29:49;4.47;;;2.90;;
8104;SDS011;4095;48.942;9.104;2024-03-25T02:32:15;7.17;;;3.40;;
8104;SDS011;4095;48.942;9.104;2024-03-25T02:34:41;7.17;;;3.60;;
8104;SDS011;4095;48.942;9.104;2024-03-25T02:37:10;5.43;;;3.10;;
8104;SDS011;4095;48.942;9.104;2024-03-25T02:39:36;4.33;;;2.90;;
8104;SDS011;4095;48.942;9.104;2024-03-25T02:42:02;5.37;;;3.10;;
8104;SDS011;4095;48.942;9.104;2024-03-25T02:44:28;6.77;;;2.90;;
8104;SDS011;4095;48.942;9.104;2024-03-25T02:46:55;4.77;;;3.20;;
8104;SDS011;4095;48.942;9.104;2024-03-25T02:49:21;5.73;;;2.87;;
8104;SDS011;4095;48.942;9.104;2024-03-25T02:51:47;5.53;;;3.10;;
8104;SDS011;4095;48.942;9.104;2024-03-25T02:54:12;6.67;;;3.00;;
8104;SDS011;4095;48.942;9.104;2024-03-25T02:56:39;7.10;;;2.83;;
8104;SDS011;4095;48.942;9.104;2024-03-25T02:59:05;4.93;;;3.10;;
8104;SDS011;4095;48.942;9.104;2024-03-25T03:01:31;4.43;;;2.90;;
8104;SDS011;4095;48.942;9.104;2024-03-25T03:03:57;6.00;;;2.97;;
8104;SDS011;4095;48.942;9.104;2024-03-25T03:06:22;7.13;;;3.03;;
8104;SDS011;4095;48.942;9.104;2024-03-25T03:08:48;6.10;;;3.03;;
8104;SDS011;4095;48.942;9.104;2024-03-25T03:11:13;4.87;;;2.83;;
8104;SDS011;4095;48.942;9.104;2024-03-25T03:13:39;4.97;;;2.87;;
8104;SDS011;4095;48.942;9.104;2024-03-25T03:16:05;5.63;;;3.00;;
8104;SDS011;4095;48.942;9.104;2024-03-25T03:18:30;5.43;;;2.83;;
8104;SDS011;4095;48.942;9.104;2024-03-25T03:20:56;4.83;;;3.03;;
8104;SDS011;4095;48.942;9.104;2024-03-25T03:23:22;7.00;;;3.10;;
8104;SDS011;4095;48.942;9.104;2024-03-25T03:25:47;4.33;;;2.80;;
8104;SDS011;4095;48.942;9.104;2024-03-25T03:28:13;7.33;;;2.93;;
8104;SDS011;4095;48.942;9.104;2024-03-25T03:30:40;5.83;;;3.00;;
8104;SDS011;4095;48.942;9.104;2024-03-25T03:33:05;6.57;;;3.37;;
8104;SDS011;4095;48.942;9.104;2024-03-25T03:35:34;4.97;;;3.00;;
8104;SDS011;4095;48.942;9.104;2024-03-25T03:37:59;5.83;;;3.00;;
8104;SDS011;4095;48.942;9.104;2024-03-25T03:40:25;5.20;;;2.90;;
8104;SDS011;4095;48.942;9.104;2024-03-25T03:42:51;6.83;;;3.03;;
8104;SDS011;4095;48.942;9.104;2024-03-25T03:45:16;4.43;;;2.80;;
8104;SDS011;4095;48.942;9.104;2024-03-25T03:47:42;4.77;;;3.07;;
8104;SDS011;4095;48.942;9.104;2024-03-25T03:50:08;5.23;;;3.17;;
8104;SDS011;4095;48.942;9.104;2024-03-25T03:52:34;5.23;;;2.90;;
8104;SDS011;4095;48.942;9.104;2024-03-25T03:55:00;7.00;;;2.70;;
8104;SDS011;4095;48.942;9.104;2024-03-25T03:57:25;5.93;;;2.93;;
8104;SDS011;4095;48.942;9.104;2024-03-25T03:59:51;7.33;;;3.00;;
8104;SDS011;4095;48.942;9.104;2024-03-25T04:02:17;5.60;;;2.90;;
8104;SDS011;4095;48.942;9.104;2024-03-25T04:04:42;5.57;;;3.17;;
8104;SDS011;4095;48.942;9.104;2024-03-25T04:07:08;4.47;;;3.30;;
8104;SDS011;4095;48.942;9.104;2024-03-25T04:09:33;6.10;;;3.07;;
8104;SDS011;4095;48.942;9.104;2024-03-25T04:11:59;5.40;;;3.33;;
8104;SDS011;4095;48.942;9.104;2024-03-25T04:14:25;6.53;;;3.00;;
8104;SDS011;4095;48.942;9.104;2024-03-25T04:16:51;6.83;;;3.00;;
8104;SDS011;4095;48.942;9.104;2024-03-25T04:19:18;6.70;;;3.07;;
8104;SDS011;4095;48.942;9.104;2024-03-25T04:21:44;6.83;;;3.20;;
8104;SDS011;4095;48.942;9.104;2024-03-25T04:24:10;5.67;;;3.13;;
8104;SDS011;4095;48.942;9.104;2024-03-25T04:26:35;4.67;;;3.10;;
8104;SDS011;4095;48.942;9.104;2024-03-25T04:29:01;6.00;;;3.20;;
8104;SDS011;4095;48.942;9.104;2024-03-25T04:31:26;7.17;;;3.17;;
8104;SDS011;4095;48.942;9.104;2024-03-25T04:33:52;5.67;;;3.30;;
8104;SDS011;4095;48.942;9.104;2024-03-25T04:36:17;5.47;;;3.03;;
8104;SDS011;4095;48.942;9.104;2024-03-25T04:38:43;6.93;;;3.27;;
8104;SDS011;4095;48.942;9.104;2024-03-25T04:41:08;4.67;;;3.03;;
8104;SDS011;4095;48.942;9.104;2024-03-25T04:43:34;5.53;;;3.70;;
8104;SDS011;4095;48.942;9.104;2024-03-25T04:46:02;7.07;;;3.40;;
8104;SDS011;4095;48.942;9.104;2024-03-25T04:48:28;8.43;;;3.93;;
8104;SDS011;4095;48.942;9.104;2024-03-25T04:50:54;7.07;;;3.37;;
8104;SDS011;4095;48.942;9.104;2024-03-25T04:53:20;7.50;;;3.80;;
8104;SDS011;4095;48.942;9.104;2024-03-25T04:55:45;6.40;;;3.57;;
8104;SDS011;4095;48.942;9.104;2024-03-25T04:58:11;7.67;;;3.57;;
8104;SDS011;4095;48.942;9.104;2024-03-25T05:00:36;5.30;;;3.37;;
8104;SDS011;4095;48.942;9.104;2024-03-25T05:03:02;7.40;;;3.30;;
8104;SDS011;4095;48.942;9.104;2024-03-25T05:05:29;5.00;;;3.50;;
8104;SDS011;4095;48.942;9.104;2024-03-25T05:07:54;9.83;;;3.80;;
8104;SDS011;4095;48.942;9.104;2024-03-25T05:10:20;7.63;;;3.90;;
8104;SDS011;4095;48.942;9.104;2024-03-25T05:12:46;5.20;;;3.40;;
8104;SDS011;4095;48.942;9.104;2024-03-25T05:15:14;7.53;;;3.57;;
8104;SDS011;4095;48.942;9.104;2024-03-25T05:17:40;5.40;;;3.50;;
8104;SDS011;4095;48.942;9.104;2024-03-25T05:20:06;8.30;;;3.50;;
8104;SDS011;4095;48.942;9.104;2024-03-25T05:22:32;4.60;;;3.40;;
8104;SDS011;4095;48.942;9.104;2024-03-25T05:24:57;5.50;;;3.43;;
8104;SDS011;4095;48.942;9.104;2024-03-25T05:27:23;9.43;;;3.80;;
8104;SDS011;4095;48.942;9.104;2024-03-25T05:29:51;6.50;;;4.00;;
8104;SDS011;4095;48.942;9.104;2024-03-25T05:32:17;8.13;;;4.37;;
8104;SDS011;4095;48.942;9.104;2024-03-25T05:34:42;6.07;;;4.00;;
8104;SDS011;4095;48.942;9.104;2024-03-25T05:37:08;6.47;;;4.50;;
8104;SDS011;4095;48.942;9.104;2024-03-25T05:39:33;8.63;;;4.70;;
8104;SDS011;4095;48.942;9.104;2024-03-25T05:41:59;8.50;;;4.30;;
8104;SDS011;4095;48.942;9.104;2024-03-25T05:44:24;8.27;;;4.10;;
8104;SDS011;4095;48.942;9.104;2024-03-25T05:46:50;7.83;;;4.23;;
8104;SDS011;4095;48.942;9.104;2024-03-25T05:49:15;7.00;;;3.90;;
8104;SDS011;4095;48.942;9.104;2024-03-25T05:51:41;10.07;;;5.97;;
8104;SDS011;4095;48.942;9.104;2024-03-25T05:54:07;8.77;;;4.83;;
8104;SDS011;4095;48.942;9.104;2024-03-25T05:56:32;8.67;;;4.40;;
8104;SDS011;4095;48.942;9.104;2024-03-25T05:58:59;6.47;;;4.10;;
8104;SDS011;4095;48.942;9.104;2024-03-25T06:01:25;6.40;;;3.70;;
8104;SDS011;4095;48.942;9.104;2024-03-25T06:03:51;6.30;;;4.07;;
8104;SDS011;4095;48.942;9.104;2024-03-25T06:06:17;6.77;;;4.17;;
8104;SDS011;4095;48.942;9.104;2024-03-25T06:08:43;8.90;;;4.47;;
8104;SDS011;4095;48.942;9.104;2024-03-25T06:11:09;7.40;;;4.03;;
8104;SDS011;4095;48.942;9.104;2024-03-25T06:13:34;10.57;;;4.37;;
8104;SDS011;4095;48.942;9.104;2024-03-25T06:16:00;5.40;;;3.87;;
8104;SDS011;4095;48.942;9.104;2024-03-25T06:18:25;6.13;;;4.20;;
8104;SDS011;4095;48.942;9.104;2024-03-25T06:20:51;7.20;;;4.13;;
8104;SDS011;4095;48.942;9.104;2024-03-25T06:25:49;5.60;;;3.90;;
8104;SDS011;4095;48.942;9.104;2024-03-25T06:28:15;6.37;;;4.27;;
8104;SDS011;4095;48.942;9.104;2024-03-25T06:30:41;10.87;;;4.30;;
8104;SDS011;4095;48.942;9.104;2024-03-25T06:33:25;9.73;;;4.17;;
8104;SDS011;4095;48.942;9.104;2024-03-25T06:36:09;7.27;;;4.27;;
8104;SDS011;4095;48.942;9.104;2024-03-25T06:38:35;10.03;;;4.53;;
8104;SDS011;4095;48.942;9.104;2024-03-25T06:41:00;7.93;;;3.93;;
8104;SDS011;4095;48.942;9.104;2024-03-25T06:43:26;9.13;;;4.30;;
8104;SDS011;4095;48.942;9.104;2024-03-25T06:45:51;7.83;;;3.87;;
8104;SDS011;4095;48.942;9.104;2024-03-25T06:48:17;7.13;;;3.87;;
8104;SDS011;4095;48.942;9.104;2024-03-25T06:50:51;8.53;;;3.90;;
8104;SDS011;4095;48.942;9.104;2024-03-25T06:53:20;7.23;;;3.83;;
8104;SDS011;4095;48.942;9.104;2024-03-25T06:55:56;6.17;;;4.03;;
8104;SDS011;4095;48.942;9.104;2024-03-25T06:58:23;9.80;;;4.00;;
8104;SDS011;4095;48.942;9.104;2024-03-25T07:00:49;6.73;;;3.43;;
8104;SDS011;4095;48.942;9.104;2024-03-25T07:03:15;6.50;;;4.03;;
8104;SDS011;4095;48.942;9.104;2024-03-25T07:05:43;6.77;;;3.90;;
8104;SDS011;4095;48.942;9.104;2024-03-25T07:08:13;6.17;;;3.50;;
8104;SDS011;4095;48.942;9.104;2024-03-25T07:10:38;5.90;;;3.43;;
8104;SDS011;4095;48.942;9.104;2024-03-25T07:13:06;7.23;;;4.20;;
8104;SDS011;4095;48.942;9.104;2024-03-25T07:15:32;6.80;;;3.97;;
8104;SDS011;4095;48.942;9.104;2024-03-25T07:17:57;8.27;;;4.17;;
8104;SDS011;4095;48.942;9.104;2024-03-25T07:20:23;7.40;;;3.93;;
8104;SDS011;4095;48.942;9.104;2024-03-25T07:22:49;4.97;;;3.67;;
8104;SDS011;4095;48.942;9.104;2024-03-25T07:25:15;7.20;;;3.83;;
8104;SDS011;4095;48.942;9.104;2024-03-25T07:27:40;6.50;;;3.80;;
8104;SDS011;4095;48.942;9.104;2024-03-25T07:30:06;5.23;;;3.40;;
8104;SDS011;4095;48.942;9.104;2024-03-25T07:32:33;5.87;;;3.80;;
8104;SDS011;4095;48.942;9.104;2024-03-25T07:34:59;6.07;;;3.70;;
8104;SDS011;4095;48.942;9.104;2024-03-25T07:37:25;7.40;;;3.60;;
8104;SDS011;4095;48.942;9.104;2024-03-25T07:39:50;6.77;;;3.50;;
8104;SDS011;4095;48.942;9.104;2024-03-25T07:42:16;5.63;;;3.30;;
8104;SDS011;4095;48.942;9.104;2024-03-25T07:44:42;6.17;;;3.60;;
8104;SDS011;4095;48.942;9.104;2024-03-25T07:47:07;5.67;;;3.53;;
8104;SDS011;4095;48.942;9.104;2024-03-25T07:49:33;6.97;;;3.27;;
8104;SDS011;4095;48.942;9.104;2024-03-25T07:51:59;7.37;;;3.73;;
8104;SDS011;4095;48.942;9.104;2024-03-25T07:54:28;7.60;;;3.27;;
8104;SDS011;4095;48.942;9.104;2024-03-25T07:56:54;9.20;;;4.50;;
8104;SDS011;4095;48.942;9.104;2024-03-25T07:59:19;6.50;;;3.40;;
8104;SDS011;4095;48.942;9.104;2024-03-25T08:01:45;6.87;;;2.57;;
8104;SDS011;4095;48.942;9.104;2024-03-25T08:04:10;6.07;;;2.77;;
8104;SDS011;4095;48.942;9.104;2024-03-25T08:06:36;7.43;;;2.90;;
8104;SDS011;4095;48.942;9.104;2024-03-25T08:09:01;5.17;;;2.40;;
8104;SDS011;4095;48.942;9.104;2024-03-25T08:11:30;4.47;;;2.30;;
8104;SDS011;4095;48.942;9.104;2024-03-25T08:13:56;4.97;;;2.67;;
8104;SDS011;4095;48.942;9.104;2024-03-25T08:16:21;5.57;;;2.40;;
8104;SDS011;4095;48.942;9.104;2024-03-25T08:18:47;4.97;;;2.30;;
8104;SDS011;4095;48.942;9.104;2024-03-25T08:21:12;4.67;;;2.40;;
8104;SDS011;4095;48.942;9.104;2024-03-25T08:23:38;4.20;;;2.40;;
8104;SDS011;4095;48.942;9.104;2024-03-25T08:26:05;4.53;;;2.27;;
8104;SDS011;4095;48.942;9.104;2024-03-25T08:28:30;7.60;;;2.60;;
8104;SDS011;4095;48.942;9.104;2024-03-25T08:30:56;6.00;;;2.10;;
8104;SDS011;4095;48.942;9.104;2024-03-25T08:33:21;5.17;;;2.40;;
8104;SDS011;4095;48.942;9.104;2024-03-25T08:35:47;4.47;;;2.27;;
8104;SDS011;4095;48.942;9.104;2024-03-25T08:38:12;4.03;;;1.73;;
8104;SDS011;4095;48.942;9.104;2024-03-25T08:40:38;5.50;;;2.17;;
8104;SDS011;4095;48.942;9.104;2024-03-25T08:43:05;2.97;;;1.80;;
8104;SDS011;4095;48.942;9.104;2024-03-25T08:45:31;3.13;;;2.00;;
8104;SDS011;4095;48.942;9.104;2024-03-25T08:47:57;4.77;;;2.00;;
8104;SDS011;4095;48.942;9.104;2024-03-25T08:50:22;4.70;;;1.90;;
8104;SDS011;4095;48.942;9.104;2024-03-25T08:52:48;4.67;;;2.23;;
8104;SDS011;4095;48.942;9.104;2024-03-25T08:55:14;3.37;;;1.80;;
8104;SDS011;4095;48.942;9.104;2024-03-25T08:57:40;4.23;;;2.00;;
8104;SDS011;4095;48.942;9.104;2024-03-25T09:00:05;3.70;;;2.03;;
8104;SDS011;4095;48.942;9.104;2024-03-25T09:02:35;4.40;;;1.90;;
8104;SDS011;4095;48.942;9.104;2024-03-25T09:05:03;3.87;;;1.90;;
8104;SDS011;4095;48.942;9.104;2024-03-25T09:07:30;4.90;;;1.90;;
8104;SDS011;4095;48.942;9.104;2024-03-25T09:09:56;3.07;;;2.10;;
8104;SDS011;4095;48.942;9.104;2024-03-25T09:12:41;6.17;;;2.13;;
8104;SDS011;4095;48.942;9.104;2024-03-25T09:15:06;4.83;;;1.97;;
8104;SDS011;4095;48.942;9.104;2024-03-25T09:17:32;3.63;;;1.90;;
8104;SDS011;4095;48.942;9.104;2024-03-25T09:19:57;4.10;;;1.80;;
8104;SDS011;4095;48.942;9.104;2024-03-25T09:22:23;4.77;;;1.73;;
8104;SDS011;4095;48.942;9.104;2024-03-25T09:24:48;3.13;;;1.80;;
8104;SDS011;4095;48.942;9.104;2024-03-25T09:27:14;5.03;;;2.10;;
8104;SDS011;4095;48.942;9.104;2024-03-25T09:29:41;4.43;;;1.90;;
8104;SDS011;4095;48.942;9.104;2024-03-25T09:32:07;4.23;;;1.80;;
8104;SDS011;4095;48.942;9.104;2024-03-25T09:34:33;4.20;;;1.83;;
8104;SDS011;4095;48.942;9.104;2024-03-25T09:36:58;4.50;;;1.80;;
8104;SDS011;4095;48.942;9.104;2024-03-25T09:39:24;4.60;;;1.80;;
8104;SDS011;4095;48.942;9.104;2024-03-25T09:41:50;3.00;;;1.70;;
8104;SDS011;4095;48.942;9.104;2024-03-25T09:44:17;2.97;;;1.50;;
8104;SDS011;4095;48.942;9.104;2024-03-25T09:46:44;3.90;;;1.80;;
8104;SDS011;4095;48.942;9.104;2024-03-25T09:49:09;2.93;;;1.47;;
8104;SDS011;4095;48.942;9.104;2024-03-25T09:51:35;4.43;;;1.70;;
8104;SDS011;4095;48.942;9.104;2024-03-25T09:54:00;4.17;;;1.77;;
8104;SDS011;4095;48.942;9.104;2024-03-25T09:56:26;2.93;;;1.50;;
8104;SDS011;4095;48.942;9.104;2024-03-25T09:58:52;3.20;;;1.73;;
8104;SDS011;4095;48.942;9.104;2024-03-25T10:01:18;3.10;;;1.37;;
8104;SDS011;4095;48.942;9.104;2024-03-25T10:03:44;7.20;;;1.80;;
8104;SDS011;4095;48.942;9.104;2024-03-25T10:06:09;2.80;;;1.40;;
8104;SDS011;4095;48.942;9.104;2024-03-25T10:08:35;4.40;;;1.60;;
8104;SDS011;4095;48.942;9.104;2024-03-25T10:11:01;3.60;;;1.60;;
8104;SDS011;4095;48.942;9.104;2024-03-25T10:13:27;3.87;;;1.70;;
8104;SDS011;4095;48.942;9.104;2024-03-25T10:15:52;3.90;;;1.97;;
8104;SDS011;4095;48.942;9.104;2024-03-25T10:18:19;2.83;;;1.50;;
8104;SDS011;4095;48.942;9.104;2024-03-25T10:20:51;4.67;;;1.90;;
8104;SDS011;4095;48.942;9.104;2024-03-25T10:23:23;4.37;;;1.80;;
8104;SDS011;4095;48.942;9.104;2024-03-25T10:25:52;3.70;;;1.60;;
8104;SDS011;4095;48.942;9.104;2024-03-25T10:28:18;3.70;;;1.60;;
8104;SDS011;4095;48.942;9.104;2024-03-25T10:30:44;3.80;;;1.40;;
8104;SDS011;4095;48.942;9.104;2024-03-25T10:33:09;4.90;;;1.77;;
8104;SDS011;4095;48.942;9.104;2024-03-25T10:35:36;3.83;;;1.80;;
8104;SDS011;4095;48.942;9.104;2024-03-25T10:38:02;2.70;;;1.60;;
8104;SDS011;4095;48.942;9.104;2024-03-25T10:40:33;1.90;;;1.30;;
8104;SDS011;4095;48.942;9.104;2024-03-25T10:43:00;2.28;;;1.30;;
8104;SDS011;4095;48.942;9.104;2024-03-25T10:45:29;2.72;;;1.35;;
8104;SDS011;4095;48.942;9.104;2024-03-25T10:47:57;2.05;;;1.15;;
8104;SDS011;4095;48.942;9.104;2024-03-25T10:50:24;2.03;;;1.17;;
8104;SDS011;4095;48.942;9.104;2024-03-25T10:52:53;1.58;;;0.98;;
8104;SDS011;4095;48.942;9.104;2024-03-25T10:55:19;2.92;;;1.40;;
8104;SDS011;4095;48.942;9.104;2024-03-25T10:57:46;2.20;;;1.27;;
8104;SDS011;4095;48.942;9.104;2024-03-25T11:00:13;3.28;;;1.33;;
8104;SDS011;4095;48.942;9.104;2024-03-25T11:02:41;1.70;;;1.30;;
8104;SDS011;4095;48.942;9.104;2024-03-25T11:05:08;2.13;;;1.30;;
8104;SDS011;4095;48.942;9.104;2024-03-25T11:07:35;1.88;;;1.20;;
8104;SDS011;4095;48.942;9.104;2024-03-25T11:10:04;2.08;;;1.23;;
8104;SDS011;4095;48.942;9.104;2024-03-25T11:12:32;1.75;;;1.13;;
8104;SDS011;4095;48.942;9.104;2024-03-25T11:15:02;2.85;;;1.52;;
8104;SDS011;4095;48.942;9.104;2024-03-25T11:17:28;2.53;;;1.17;;
8104;SDS011;4095;48.942;9.104;2024-03-25T11:19:54;2.20;;;1.20;;
8104;SDS011;4095;48.942;9.104;2024-03-25T11:22:32;2.25;;;1.25;;
8104;SDS011;4095;48.942;9.104;2024-03-25T11:25:04;1.90;;;1.23;;
8104;SDS011;4095;48.942;9.104;2024-03-25T11:27:32;1.95;;;1.10;;
8104;SDS011;4095;48.942;9.104;2024-03-25T11:29:59;2.00;;;1.20;;
8104;SDS011;4095;48.942;9.104;2024-03-25T11:32:24;1.98;;;1.05;;
8104;SDS011;4095;48.942;9.104;2024-03-25T11:34:52;1.85;;;1.10;;
8104;SDS011;4095;48.942;9.104;2024-03-25T11:37:17;2.30;;;1.30;;
8104;SDS011;4095;48.942;9.104;2024-03-25T11:39:43;1.15;;;0.88;;
8104;SDS011;4095;48.942;9.104;2024-03-25T11:42:08;2.83;;;1.63;;
8104;SDS011;4095;48.942;9.104;2024-03-25T11:44:37;2.28;;;1.40;;
8104;SDS011;4095;48.942;9.104;2024-03-25T11:47:05;1.65;;;1.17;;
8104;SDS011;4095;48.942;9.104;2024-03-25T11:49:36;1.67;;;1.40;;
8104;SDS011;4095;48.942;9.104;2024-03-25T11:52:05;3.10;;;1.55;;
8104;SDS011;4095;48.942;9.104;2024-03-25T11:54:32;3.38;;;1.40;;
8104;SDS011;4095;48.942;9.104;2024-03-25T11:56:57;2.05;;;1.33;;
8104;SDS011;4095;48.942;9.104;2024-03-25T11:59:24;2.70;;;1.30;;
8104;SDS011;4095;48.942;9.104;2024-03-25T12:01:50;2.65;;;1.45;;
8104;SDS011;4095;48.942;9.104;2024-03-25T12:04:16;2.67;;;1.25;;
8104;SDS011;4095;48.942;9.104;2024-03-25T12:06:43;2.00;;;1.20;;
8104;SDS011;4095;48.942;9.104;2024-03-25T12:09:10;1.83;;;1.10;;
8104;SDS011;4095;48.942;9.104;2024-03-25T12:11:55;2.83;;;1.35;;
8104;SDS011;4095;48.942;9.104;2024-03-25T12:14:21;3.28;;;1.30;;
8104;SDS011;4095;48.942;9.104;2024-03-25T12:16:48;2.42;;;1.20;;
8104;SDS011;4095;48.942;9.104;2024-03-25T12:19:15;2.15;;;1.33;;
8104;SDS011;4095;48.942;9.104;2024-03-25T12:21:43;2.40;;;1.45;;
8104;SDS011;4095;48.942;9.104;2024-03-25T12:24:08;2.15;;;1.30;;
8104;SDS011;4095;48.942;9.104;2024-03-25T12:26:34;3.03;;;1.58;;
8104;SDS011;4095;48.942;9.104;2024-03-25T12:29:00;2.33;;;1.40;;
8104;SDS011;4095;48.942;9.104;2024-03-25T12:31:28;2.22;;;1.33;;
8104;SDS011;4095;48.942;9.104;2024-03-25T12:33:54;2.17;;;1.40;;
8104;SDS011;4095;48.942;9.104;2024-03-25T12:36:20;2.45;;;1.48;;
8104;SDS011;4095;48.942;9.104;2024-03-25T12:38:53;3.08;;;1.60;;
8104;SDS011;4095;48.942;9.104;2024-03-25T12:41:22;2.30;;;1.42;;
8104;SDS011;4095;48.942;9.104;2024-03-25T12:43:49;1.30;;;1.13;;
8104;SDS011;4095;48.942;9.104;2024-03-25T12:46:15;3.15;;;1.40;;
8104;SDS011;4095;48.942;9.104;2024-03-25T12:48:41;2.30;;;1.50;;
8104;SDS011;4095;48.942;9.104;2024-03-25T12:51:11;2.67;;;1.50;;
8104;SDS011;4095;48.942;9.104;2024-03-25T12:53:38;2.13;;;1.38;;
8104;SDS011;4095;48.942;9.104;2024-03-25T12:56:03;2.20;;;1.40;;
8104;SDS011;4095;48.942;9.104;2024-03-25T12:58:29;2.70;;;1.58;;
8104;SDS011;4095;48.942;9.104;2024-03-25T13:00:55;3.42;;;1.63;;
8104;SDS011;4095;48.942;9.104;2024-03-25T13:03:20;2.00;;;1.52;;
8104;SDS011;4095;48.942;9.104;2024-03-25T13:05:46;3.13;;;1.80;;
8104;SDS011;4095;48.942;9.104;2024-03-25T13:08:12;2.72;;;1.70;;
8104;SDS011;4095;48.942;9.104;2024-03-25T13:10:37;3.20;;;1.42;;
8104;SDS011;4095;48.942;9.104;2024-03-25T13:13:03;2.40;;;1.52;;
8104;SDS011;4095;48.942;9.104;2024-03-25T13:15:30;2.83;;;1.80;;
8104;SDS011;4095;48.942;9.104;2024-03-25T13:17:56;2.75;;;1.67;;
8104;SDS011;4095;48.942;9.104;2024-03-25T13:20:22;3.00;;;1.63;;
8104;SDS011;4095;48.942;9.104;2024-03-25T13:22:48;2.35;;;1.33;;
8104;SDS011;4095;48.942;9.104;2024-03-25T13:25:14;2.55;;;1.60;;
8104;SDS011;4095;48.942;9.104;2024-03-25T13:27:40;2.45;;;1.35;;
8104;SDS011;4095;48.942;9.104;2024-03-25T13:30:06;3.30;;;1.75;;
8104;SDS011;4095;48.942;9.104;2024-03-25T13:32:31;2.97;;;1.77;;
8104;SDS011;4095;48.942;9.104;2024-03-25T13:34:57;3.47;;;1.85;;
8104;SDS011;4095;48.942;9.104;2024-03-25T13:37:23;1.98;;;1.42;;
8104;SDS011;4095;48.942;9.104;2024-03-25T13:39:48;2.38;;;1.60;;
8104;SDS011;4095;48.942;9.104;2024-03-25T13:42:15;1.90;;;1.35;;
8104;SDS011;4095;48.942;9.104;2024-03-25T13:44:41;3.63;;;2.13;;
8104;SDS011;4095;48.942;9.104;2024-03-25T13:47:07;2.95;;;1.85;;
8104;SDS011;4095;48.942;9.104;2024-03-25T13:49:33;2.60;;;1.75;;
8104;SDS011;4095;48.942;9.104;2024-03-25T13:51:59;2.90;;;1.77;;
8104;SDS011;4095;48.942;9.104;2024-03-25T13:54:26;4.03;;;1.85;;
8104;SDS011;4095;48.942;9.104;2024-03-25T13:56:51;3.05;;;1.63;;
8104;SDS011;4095;48.942;9.104;2024-03-25T13:59:17;2.20;;;1.50;;
8104;SDS011;4095;48.942;9.104;2024-03-25T14:01:43;1.77;;;1.60;;
8104;SDS011;4095;48.942;9.104;2024-03-25T14:04:09;3.10;;;1.50;;
8104;SDS011;4095;48.942;9.104;2024-03-25T14:06:35;3.70;;;1.90;;
8104;SDS011;4095;48.942;9.104;2024-03-25T14:09:01;2.17;;;1.60;;
8104;SDS011;4095;48.942;9.104;2024-03-25T14:11:29;2.80;;;1.80;;
8104;SDS011;4095;48.942;9.104;2024-03-25T14:13:55;2.70;;;1.70;;
8104;SDS011;4095;48.942;9.104;2024-03-25T14:16:20;1.98;;;1.45;;
8104;SDS011;4095;48.942;9.104;2024-03-25T14:18:46;3.08;;;1.80;;
8104;SDS011;4095;48.942;9.104;2024-03-25T14:21:12;3.50;;;1.80;;
8104;SDS011;4095;48.942;9.104;2024-03-25T14:23:38;3.03;;;1.83;;
8104;SDS011;4095;48.942;9.104;2024-03-25T14:26:08;2.83;;;1.90;;
8104;SDS011;4095;48.942;9.104;2024-03-25T14:28:34;2.97;;;1.70;;
8104;SDS011;4095;48.942;9.104;2024-03-25T14:30:59;2.37;;;1.57;;
8104;SDS011;4095;48.942;9.104;2024-03-25T14:33:25;4.03;;;2.03;;
8104;SDS011;4095;48.942;9.104;2024-03-25T14:35:50;3.33;;;1.70;;
8104;SDS011;4095;48.942;9.104;2024-03-25T14:38:16;2.73;;;1.80;;
8104;SDS011;4095;48.942;9.104;2024-03-25T14:40:41;3.27;;;1.70;;
8104;SDS011;4095;48.942;9.104;2024-03-25T14:43:07;2.17;;;1.70;;
8104;SDS011;4095;48.942;9.104;2024-03-25T14:45:32;2.90;;;1.70;;
8104;SDS011;4095;48.942;9.104;2024-03-25T14:47:58;1.70;;;1.57;;
8104;SDS011;4095;48.942;9.104;2024-03-25T14:50:24;2.60;;;1.60;;
8104;SDS011;4095;48.942;9.104;2024-03-25T14:52:49;2.87;;;1.90;;
8104;SDS011;4095;48.942;9.104;2024-03-25T14:55:15;2.93;;;1.87;;
8104;SDS011;4095;48.942;9.104;2024-03-25T14:57:41;3.20;;;1.70;;
8104;SDS011;4095;48.942;9.104;2024-03-25T15:00:07;4.77;;;1.80;;
8104;SDS011;4095;48.942;9.104;2024-03-25T15:02:33;2.30;;;1.40;;
8104;SDS011;4095;48.942;9.104;2024-03-25T15:04:59;3.03;;;1.60;;
8104;SDS011;4095;48.942;9.104;2024-03-25T15:07:25;3.40;;;1.60;;
8104;SDS011;4095;48.942;9.104;2024-03-25T15:09:51;3.30;;;1.67;;
8104;SDS011;4095;48.942;9.104;2024-03-25T15:12:16;2.57;;;1.50;;